sensor_id;sensor_type;location;lat;lon;timestamp;pressure;altitude;pressure_sealevel;temperature;humidity
24858;BME280;12935;50.782;6.074;2023-04-25T00:02:20;98930.00;;;7.03;100.00
24858;BME280;12935;50.782;6.074;2023-04-25T00:04:45;98940.50;;;7.05;100.00
24858;BME280;12935;50.782;6.074;2023-04-25T00:07:11;98940.88;;;7.11;100.00
24858;BME280;12935;50.782;6.074;2023-04-25T00:09:36;98938.16;;;7.07;100.00
24858;BME280;12935;50.782;6.074;2023-04-25T00:12:02;98937.34;;;6.99;100.00
24858;BME280;12935;50.782;6.074;2023-04-25T00:14:27;98932.28;;;6.94;100.00
24858;BME280;12935;50.782;6.074;2023-04-25T00:16:53;98940.44;;;6.98;100.00
24858;BME280;12935;50.782;6.074;2023-04-25T00:19:19;98941.25;;;7.06;100.00
24858;BME280;12935;50.782;6.074;2023-04-25T00:21:44;98937.34;;;6.92;100.00
24858;BME280;12935;50.782;6.074;2023-04-25T00:24:11;98935.38;;;6.89;100.00
24858;BME280;12935;50.782;6.074;2023-04-25T00:26:36;98922.16;;;6.81;100.00
24858;BME280;12935;50.782;6.074;2023-04-25T00:29:02;98936.94;;;6.97;100.00
24858;BME280;12935;50.782;6.074;2023-04-25T00:31:27;98936.56;;;6.99;100.00
24858;BME280;12935;50.782;6.074;2023-04-25T00:33:54;98937.38;;;7.03;100.00
24858;BME280;12935;50.782;6.074;2023-04-25T00:36:19;98940.06;;;6.99;100.00
24858;BME280;12935;50.782;6.074;2023-04-25T00:38:45;98945.50;;;6.92;100.00
24858;BME280;12935;50.782;6.074;2023-04-25T00:41:10;98944.66;;;6.85;100.00
24858;BME280;12935;50.782;6.074;2023-04-25T00:43:36;98949.31;;;6.84;100.00
24858;BME280;12935;50.782;6.074;2023-04-25T00:46:02;98938.06;;;6.82;100.00
24858;BME280;12935;50.782;6.074;2023-04-25T00:48:27;98943.13;;;6.87;100.00
24858;BME280;12935;50.782;6.074;2023-04-25T00:50:54;98936.16;;;6.86;100.00
24858;BME280;12935;50.782;6.074;2023-04-25T00:53:25;98945.81;;;6.84;100.00
24858;BME280;12935;50.782;6.074;2023-04-25T00:55:50;98938.41;;;6.77;100.00
24858;BME280;12935;50.782;6.074;2023-04-25T00:58:20;98940.75;;;6.75;100.00
24858;BME280;12935;50.782;6.074;2023-04-25T01:00:47;98938.06;;;6.75;100.00
24858;BME280;12935;50.782;6.074;2023-04-25T01:03:16;98944.22;;;6.72;100.00
24858;BME280;12935;50.782;6.074;2023-04-25T01:05:45;98945.78;;;6.73;100.00
24858;BME280;12935;50.782;6.074;2023-04-25T01:08:10;98952.34;;;6.65;100.00
24858;BME280;12935;50.782;6.074;2023-04-25T01:10:36;98951.94;;;6.59;100.00
24858;BME280;12935;50.782;6.074;2023-04-25T01:13:01;98947.28;;;6.60;100.00
24858;BME280;12935;50.782;6.074;2023-04-25T01:15:27;98946.91;;;6.65;100.00
24858;BME280;12935;50.782;6.074;2023-04-25T01:17:53;98942.63;;;6.64;100.00
24858;BME280;12935;50.782;6.074;2023-04-25T01:20:21;98949.25;;;6.70;100.00
24858;BME280;12935;50.782;6.074;2023-04-25T01:22:48;98951.19;;;6.66;100.00
24858;BME280;12935;50.782;6.074;2023-04-25T01:25:14;98950.41;;;6.69;100.00
24858;BME280;12935;50.782;6.074;2023-04-25T01:27:39;98946.19;;;6.79;100.00
24858;BME280;12935;50.782;6.074;2023-04-25T01:30:06;98943.84;;;6.70;100.00
24858;BME280;12935;50.782;6.074;2023-04-25T01:32:33;98945.75;;;6.66;100.00
24858;BME280;12935;50.782;6.074;2023-04-25T01:35:04;98953.50;;;6.64;100.00
24858;BME280;12935;50.782;6.074;2023-04-25T01:37:43;98950.00;;;6.63;100.00
24858;BME280;12935;50.782;6.074;2023-04-25T01:40:10;98956.97;;;6.64;100.00
24858;BME280;12935;50.782;6.074;2023-04-25T01:42:39;98951.56;;;6.61;100.00
24858;BME280;12935;50.782;6.074;2023-04-25T01:45:06;98956.59;;;6.59;100.00
24858;BME280;12935;50.782;6.074;2023-04-25T01:47:31;98963.59;;;6.67;100.00
24858;BME280;12935;50.782;6.074;2023-04-25T01:49:57;98960.84;;;6.63;100.00
24858;BME280;12935;50.782;6.074;2023-04-25T01:52:22;98967.06;;;6.60;100.00
24858;BME280;12935;50.782;6.074;2023-04-25T01:54:48;98963.16;;;6.54;100.00
24858;BME280;12935;50.782;6.074;2023-04-25T01:57:15;98963.53;;;6.56;100.00
24858;BME280;12935;50.782;6.074;2023-04-25T01:59:40;98962.38;;;6.57;100.00
24858;BME280;12935;50.782;6.074;2023-04-25T02:02:06;98965.47;;;6.56;100.00
24858;BME280;12935;50.782;6.074;2023-04-25T02:04:32;98957.75;;;6.58;100.00
24858;BME280;12935;50.782;6.074;2023-04-25T02:06:57;98954.63;;;6.56;100.00
24858;BME280;12935;50.782;6.074;2023-04-25T02:09:23;98955.44;;;6.60;100.00
24858;BME280;12935;50.782;6.074;2023-04-25T02:11:48;98956.16;;;6.53;100.00
24858;BME280;12935;50.782;6.074;2023-04-25T02:14:14;98960.81;;;6.53;100.00
24858;BME280;12935;50.782;6.074;2023-04-25T02:16:39;98966.59;;;6.51;100.00
24858;BME280;12935;50.782;6.074;2023-04-25T02:19:05;98966.63;;;6.55;100.00
24858;BME280;12935;50.782;6.074;2023-04-25T02:21:31;98967.81;;;6.57;100.00
24858;BME280;12935;50.782;6.074;2023-04-25T02:23:56;98967.84;;;6.64;100.00
24858;BME280;12935;50.782;6.074;2023-04-25T02:26:21;98966.28;;;6.63;100.00
24858;BME280;12935;50.782;6.074;2023-04-25T02:28:49;98975.97;;;6.57;100.00
24858;BME280;12935;50.782;6.074;2023-04-25T02:31:14;98966.97;;;6.43;100.00
24858;BME280;12935;50.782;6.074;2023-04-25T02:33:40;98969.28;;;6.48;100.00
24858;BME280;12935;50.782;6.074;2023-04-25T02:36:05;98957.28;;;6.49;100.00
24858;BME280;12935;50.782;6.074;2023-04-25T02:38:31;98975.09;;;6.43;100.00
24858;BME280;12935;50.782;6.074;2023-04-25T02:40:56;98967.31;;;6.38;100.00
24858;BME280;12935;50.782;6.074;2023-04-25T02:43:21;98971.56;;;6.39;100.00
24858;BME280;12935;50.782;6.074;2023-04-25T02:45:47;98975.81;;;6.36;100.00
24858;BME280;12935;50.782;6.074;2023-04-25T02:48:12;98973.09;;;6.36;100.00
24858;BME280;12935;50.782;6.074;2023-04-25T02:50:37;98976.94;;;6.31;100.00
24858;BME280;12935;50.782;6.074;2023-04-25T02:53:02;98974.66;;;6.37;100.00
24858;BME280;12935;50.782;6.074;2023-04-25T02:55:28;98967.66;;;6.32;100.00
24858;BME280;12935;50.782;6.074;2023-04-25T02:57:53;98971.56;;;6.35;100.00
24858;BME280;12935;50.782;6.074;2023-04-25T03:00:20;98973.84;;;6.29;100.00
24858;BME280;12935;50.782;6.074;2023-04-25T03:02:46;98968.03;;;6.27;100.00
24858;BME280;12935;50.782;6.074;2023-04-25T03:05:11;98971.88;;;6.26;100.00
24858;BME280;12935;50.782;6.074;2023-04-25T03:07:36;98968.03;;;6.27;100.00
24858;BME280;12935;50.782;6.074;2023-04-25T03:10:02;98980.03;;;6.30;100.00
24858;BME280;12935;50.782;6.074;2023-04-25T03:12:27;98971.91;;;6.30;100.00
24858;BME280;12935;50.782;6.074;2023-04-25T03:14:52;98973.06;;;6.25;100.00
24858;BME280;12935;50.782;6.074;2023-04-25T03:17:18;98983.09;;;6.21;100.00
24858;BME280;12935;50.782;6.074;2023-04-25T03:19:43;98976.47;;;6.19;100.00
24858;BME280;12935;50.782;6.074;2023-04-25T03:22:08;98977.69;;;6.25;100.00
24858;BME280;12935;50.782;6.074;2023-04-25T03:24:33;98973.06;;;6.25;100.00
24858;BME280;12935;50.782;6.074;2023-04-25T03:26:59;98980.00;;;6.23;100.00
24858;BME280;12935;50.782;6.074;2023-04-25T03:29:25;98978.00;;;6.16;100.00
24858;BME280;12935;50.782;6.074;2023-04-25T03:31:52;98974.97;;;6.25;100.00
24858;BME280;12935;50.782;6.074;2023-04-25T03:34:17;98978.00;;;6.16;100.00
24858;BME280;12935;50.782;6.074;2023-04-25T03:36:43;98976.53;;;6.26;100.00
24858;BME280;12935;50.782;6.074;2023-04-25T03:39:08;98979.22;;;6.22;100.00
24858;BME280;12935;50.782;6.074;2023-04-25T03:41:33;98983.09;;;6.21;100.00
24858;BME280;12935;50.782;6.074;2023-04-25T03:43:59;98986.13;;;6.16;100.00
24858;BME280;12935;50.782;6.074;2023-04-25T03:46:24;98994.66;;;6.15;100.00
24858;BME280;12935;50.782;6.074;2023-04-25T03:48:49;98991.16;;;6.14;100.00
24858;BME280;12935;50.782;6.074;2023-04-25T03:51:15;98993.13;;;6.17;100.00
24858;BME280;12935;50.782;6.074;2023-04-25T03:53:40;98993.16;;;6.21;100.00
24858;BME280;12935;50.782;6.074;2023-04-25T03:56:06;98983.94;;;6.29;100.00
24858;BME280;12935;50.782;6.074;2023-04-25T03:58:31;98986.25;;;6.30;100.00
24858;BME280;12935;50.782;6.074;2023-04-25T04:00:56;98989.31;;;6.25;100.00
24858;BME280;12935;50.782;6.074;2023-04-25T04:03:22;98990.06;;;6.22;100.00
24858;BME280;12935;50.782;6.074;2023-04-25T04:05:47;98994.78;;;6.29;100.00
24858;BME280;12935;50.782;6.074;2023-04-25T04:08:12;98995.16;;;6.31;100.00
24858;BME280;12935;50.782;6.074;2023-04-25T04:10:38;98999.44;;;6.32;100.00
24858;BME280;12935;50.782;6.074;2023-04-25T04:13:03;99001.38;;;6.31;100.00
24858;BME280;12935;50.782;6.074;2023-04-25T04:15:28;98996.44;;;6.44;100.00
24858;BME280;12935;50.782;6.074;2023-04-25T04:17:54;98999.47;;;6.36;100.00
24858;BME280;12935;50.782;6.074;2023-04-25T04:20:19;99003.72;;;6.37;100.00
24858;BME280;12935;50.782;6.074;2023-04-25T04:22:45;99002.91;;;6.29;100.00
24858;BME280;12935;50.782;6.074;2023-04-25T04:25:10;99005.63;;;6.29;100.00
24858;BME280;12935;50.782;6.074;2023-04-25T04:27:37;99010.66;;;6.27;100.00
24858;BME280;12935;50.782;6.074;2023-04-25T04:30:03;99018.28;;;6.14;100.00
24858;BME280;12935;50.782;6.074;2023-04-25T04:32:28;99013.31;;;6.20;100.00
24858;BME280;12935;50.782;6.074;2023-04-25T04:34:55;99014.81;;;6.14;100.00
24858;BME280;12935;50.782;6.074;2023-04-25T04:37:20;99013.00;;;6.32;100.00
24858;BME280;12935;50.782;6.074;2023-04-25T04:39:47;99023.81;;;6.25;100.00
24858;BME280;12935;50.782;6.074;2023-04-25T04:42:12;99019.59;;;6.34;100.00
24858;BME280;12935;50.782;6.074;2023-04-25T04:44:38;99022.75;;;6.40;100.00
24858;BME280;12935;50.782;6.074;2023-04-25T04:47:04;99030.16;;;6.43;100.00
24858;BME280;12935;50.782;6.074;2023-04-25T04:49:31;99028.22;;;6.47;100.00
24858;BME280;12935;50.782;6.074;2023-04-25T04:51:56;99026.22;;;6.37;100.00
24858;BME280;12935;50.782;6.074;2023-04-25T04:54:21;99031.56;;;6.26;100.00
24858;BME280;12935;50.782;6.074;2023-04-25T04:56:47;99033.88;;;6.24;100.00
24858;BME280;12935;50.782;6.074;2023-04-25T04:59:12;99042.75;;;6.21;100.00
24858;BME280;12935;50.782;6.074;2023-04-25T05:01:37;99048.19;;;6.21;100.00
24858;BME280;12935;50.782;6.074;2023-04-25T05:04:03;99058.97;;;6.14;100.00
24858;BME280;12935;50.782;6.074;2023-04-25T05:06:29;99060.16;;;6.17;100.00
24858;BME280;12935;50.782;6.074;2023-04-25T05:08:55;99069.47;;;6.19;100.00
24858;BME280;12935;50.782;6.074;2023-04-25T05:11:21;99064.44;;;6.18;100.00
24858;BME280;12935;50.782;6.074;2023-04-25T05:13:46;99071.44;;;6.22;100.00
24858;BME280;12935;50.782;6.074;2023-04-25T05:16:12;99071.41;;;6.19;100.00
24858;BME280;12935;50.782;6.074;2023-04-25T05:18:39;99078.06;;;6.25;100.00
24858;BME280;12935;50.782;6.074;2023-04-25T05:21:04;99076.78;;;6.12;100.00
24858;BME280;12935;50.782;6.074;2023-04-25T05:23:31;99080.66;;;6.14;100.00
24858;BME280;12935;50.782;6.074;2023-04-25T05:25:56;99076.06;;;6.18;100.00
24858;BME280;12935;50.782;6.074;2023-04-25T05:28:21;99077.31;;;6.28;100.00
24858;BME280;12935;50.782;6.074;2023-04-25T05:30:47;99075.38;;;6.28;100.00
24858;BME280;12935;50.782;6.074;2023-04-25T05:33:12;99078.88;;;6.29;100.00
24858;BME280;12935;50.782;6.074;2023-04-25T05:35:38;99086.63;;;6.27;100.00
24858;BME280;12935;50.782;6.074;2023-04-25T05:38:03;99092.09;;;6.34;100.00
24858;BME280;12935;50.782;6.074;2023-04-25T05:40:28;99093.69;;;6.39;100.00
24858;BME280;12935;50.782;6.074;2023-04-25T05:42:54;99093.72;;;6.42;100.00
24858;BME280;12935;50.782;6.074;2023-04-25T05:45:19;99092.88;;;6.34;100.00
24858;BME280;12935;50.782;6.074;2023-04-25T05:47:44;99097.56;;;6.38;100.00
24858;BME280;12935;50.782;6.074;2023-04-25T05:50:10;99098.75;;;6.40;100.00
24858;BME280;12935;50.782;6.074;2023-04-25T05:52:35;99094.47;;;6.39;100.00
24858;BME280;12935;50.782;6.074;2023-04-25T05:55:00;99099.16;;;6.42;100.00
24858;BME280;12935;50.782;6.074;2023-04-25T05:57:26;99108.53;;;6.52;100.00
24858;BME280;12935;50.782;6.074;2023-04-25T05:59:52;99099.38;;;6.78;100.00
24858;BME280;12935;50.782;6.074;2023-04-25T06:02:19;99102.97;;;6.89;100.00
24858;BME280;12935;50.782;6.074;2023-04-25T06:04:46;99109.25;;;7.00;100.00
24858;BME280;12935;50.782;6.074;2023-04-25T06:07:11;99114.25;;;6.91;100.00
24858;BME280;12935;50.782;6.074;2023-04-25T06:09:36;99118.50;;;6.88;100.00
24858;BME280;12935;50.782;6.074;2023-04-25T06:12:04;99113.00;;;6.81;100.00
24858;BME280;12935;50.782;6.074;2023-04-25T06:14:30;99120.00;;;6.82;100.00
24858;BME280;12935;50.782;6.074;2023-04-25T06:16:55;99123.13;;;6.84;100.00
24858;BME280;12935;50.782;6.074;2023-04-25T06:19:20;99129.75;;;6.90;100.00
24858;BME280;12935;50.782;6.074;2023-04-25T06:21:46;99126.16;;;6.79;100.00
24858;BME280;12935;50.782;6.074;2023-04-25T06:24:11;99133.25;;;6.91;100.00
24858;BME280;12935;50.782;6.074;2023-04-25T06:26:36;99131.25;;;6.84;100.00
24858;BME280;12935;50.782;6.074;2023-04-25T06:29:02;99142.69;;;7.08;100.00
24858;BME280;12935;50.782;6.074;2023-04-25T06:31:27;99133.31;;;7.01;100.00
24858;BME280;12935;50.782;6.074;2023-04-25T06:33:54;99142.22;;;6.98;100.00
24858;BME280;12935;50.782;6.074;2023-04-25T06:36:20;99139.66;;;7.20;100.00
24858;BME280;12935;50.782;6.074;2023-04-25T06:38:53;99135.94;;;7.56;100.00
24858;BME280;12935;50.782;6.074;2023-04-25T06:41:18;99139.47;;;7.64;100.00
24858;BME280;12935;50.782;6.074;2023-04-25T06:43:44;99141.00;;;7.54;100.00
24858;BME280;12935;50.782;6.074;2023-04-25T06:46:09;99147.91;;;7.45;100.00
24858;BME280;12935;50.782;6.074;2023-04-25T06:48:34;99148.63;;;7.31;100.00
24858;BME280;12935;50.782;6.074;2023-04-25T06:51:00;99154.31;;;7.08;100.00
24858;BME280;12935;50.782;6.074;2023-04-25T06:53:25;99153.53;;;7.04;100.00
24858;BME280;12935;50.782;6.074;2023-04-25T06:55:50;99150.41;;;7.02;100.00
24858;BME280;12935;50.782;6.074;2023-04-25T06:58:16;99156.19;;;7.00;100.00
24858;BME280;12935;50.782;6.074;2023-04-25T07:00:41;99156.97;;;7.01;100.00
24858;BME280;12935;50.782;6.074;2023-04-25T07:03:07;99156.28;;;7.15;100.00
24858;BME280;12935;50.782;6.074;2023-04-25T07:05:32;99153.31;;;7.34;100.00
24858;BME280;12935;50.782;6.074;2023-04-25T07:07:57;99163.94;;;7.64;100.00
24858;BME280;12935;50.782;6.074;2023-04-25T07:10:22;99152.97;;;7.39;100.00
24858;BME280;12935;50.782;6.074;2023-04-25T07:12:48;99152.56;;;7.37;100.00
24858;BME280;12935;50.782;6.074;2023-04-25T07:15:13;99163.03;;;7.38;100.00
24858;BME280;12935;50.782;6.074;2023-04-25T07:17:39;99159.16;;;7.36;100.00
24858;BME280;12935;50.782;6.074;2023-04-25T07:20:05;99165.75;;;7.38;100.00
24858;BME280;12935;50.782;6.074;2023-04-25T07:22:31;99162.59;;;7.29;100.00
24858;BME280;12935;50.782;6.074;2023-04-25T07:24:57;99168.16;;;7.51;100.00
24858;BME280;12935;50.782;6.074;2023-04-25T07:27:22;99172.81;;;7.57;100.00
24858;BME280;12935;50.782;6.074;2023-04-25T07:29:47;99178.22;;;7.47;100.00
24858;BME280;12935;50.782;6.074;2023-04-25T07:32:13;99184.78;;;7.42;100.00
24858;BME280;12935;50.782;6.074;2023-04-25T07:34:39;99180.47;;;7.34;100.00
24858;BME280;12935;50.782;6.074;2023-04-25T07:37:04;99185.50;;;7.32;100.00
24858;BME280;12935;50.782;6.074;2023-04-25T07:39:30;99180.50;;;7.37;100.00
24858;BME280;12935;50.782;6.074;2023-04-25T07:41:55;99187.41;;;7.28;100.00
24858;BME280;12935;50.782;6.074;2023-04-25T07:44:21;99194.81;;;7.31;100.00
24858;BME280;12935;50.782;6.074;2023-04-25T07:46:46;99188.97;;;7.25;100.00
24858;BME280;12935;50.782;6.074;2023-04-25T07:49:12;99201.66;;;7.11;100.00
24858;BME280;12935;50.782;6.074;2023-04-25T07:51:37;99207.16;;;7.18;100.00
24858;BME280;12935;50.782;6.074;2023-04-25T07:54:02;99211.00;;;7.13;100.00
24858;BME280;12935;50.782;6.074;2023-04-25T07:56:28;99216.97;;;7.33;100.00
24858;BME280;12935;50.782;6.074;2023-04-25T07:58:53;99218.84;;;7.25;100.00
24858;BME280;12935;50.782;6.074;2023-04-25T08:01:18;99228.13;;;7.17;100.00
24858;BME280;12935;50.782;6.074;2023-04-25T08:03:45;99228.47;;;7.12;100.00
24858;BME280;12935;50.782;6.074;2023-04-25T08:06:11;99240.59;;;7.22;100.00
24858;BME280;12935;50.782;6.074;2023-04-25T08:08:36;99230.88;;;7.24;100.00
24858;BME280;12935;50.782;6.074;2023-04-25T08:11:01;99239.34;;;7.16;100.00
24858;BME280;12935;50.782;6.074;2023-04-25T08:13:27;99240.47;;;7.08;100.00
24858;BME280;12935;50.782;6.074;2023-04-25T08:15:52;99239.53;;;7.37;100.00
24858;BME280;12935;50.782;6.074;2023-04-25T08:18:17;99248.91;;;7.47;100.00
24858;BME280;12935;50.782;6.074;2023-04-25T08:20:43;99249.66;;;7.44;100.00
24858;BME280;12935;50.782;6.074;2023-04-25T08:23:08;99249.38;;;7.63;100.00
24858;BME280;12935;50.782;6.074;2023-04-25T08:25:33;99250.59;;;7.72;100.00
24858;BME280;12935;50.782;6.074;2023-04-25T08:27:58;99240.19;;;7.89;100.00
24858;BME280;12935;50.782;6.074;2023-04-25T08:30:24;99256.28;;;8.26;100.00
24858;BME280;12935;50.782;6.074;2023-04-25T08:32:50;99252.47;;;8.34;100.00
24858;BME280;12935;50.782;6.074;2023-04-25T08:35:15;99257.91;;;8.41;100.00
24858;BME280;12935;50.782;6.074;2023-04-25T08:37:42;99257.94;;;8.48;100.00
24858;BME280;12935;50.782;6.074;2023-04-25T08:40:11;99274.72;;;8.61;95.46
24858;BME280;12935;50.782;6.074;2023-04-25T08:42:40;99271.59;;;8.66;90.91
24858;BME280;12935;50.782;6.074;2023-04-25T08:45:07;99268.13;;;8.76;92.33
24858;BME280;12935;50.782;6.074;2023-04-25T08:47:33;99275.91;;;8.74;90.59
24858;BME280;12935;50.782;6.074;2023-04-25T08:49:59;99279.34;;;8.50;90.43
24858;BME280;12935;50.782;6.074;2023-04-25T08:52:27;99275.84;;;8.49;90.74
24858;BME280;12935;50.782;6.074;2023-04-25T08:54:54;99270.84;;;8.76;88.28
24858;BME280;12935;50.782;6.074;2023-04-25T08:57:21;99284.47;;;8.83;85.76
24858;BME280;12935;50.782;6.074;2023-04-25T08:59:46;99276.69;;;8.99;87.07
24858;BME280;12935;50.782;6.074;2023-04-25T09:02:12;99286.44;;;9.04;87.30
24858;BME280;12935;50.782;6.074;2023-04-25T09:04:43;99286.44;;;9.18;86.72
24858;BME280;12935;50.782;6.074;2023-04-25T09:07:09;99295.41;;;9.40;85.09
24858;BME280;12935;50.782;6.074;2023-04-25T09:09:34;99293.09;;;9.28;83.63
24858;BME280;12935;50.782;6.074;2023-04-25T09:12:00;99300.47;;;9.02;81.02
24858;BME280;12935;50.782;6.074;2023-04-25T09:14:26;99304.69;;;8.82;80.22
24858;BME280;12935;50.782;6.074;2023-04-25T09:19:29;99305.78;;;8.46;78.45
24858;BME280;12935;50.782;6.074;2023-04-25T09:21:57;99317.41;;;8.35;80.34
24858;BME280;12935;50.782;6.074;2023-04-25T09:26:55;99324.06;;;8.52;78.67
24858;BME280;12935;50.782;6.074;2023-04-25T09:29:28;99322.19;;;8.63;79.40
24858;BME280;12935;50.782;6.074;2023-04-25T09:34:39;99329.97;;;8.65;81.10
24858;BME280;12935;50.782;6.074;2023-04-25T09:37:06;99339.69;;;8.69;81.34
24858;BME280;12935;50.782;6.074;2023-04-25T09:39:32;99337.78;;;8.84;80.61
24858;BME280;12935;50.782;6.074;2023-04-25T09:41:59;99345.09;;;8.55;80.92
24858;BME280;12935;50.782;6.074;2023-04-25T09:44:24;99353.56;;;8.36;79.89
24858;BME280;12935;50.782;6.074;2023-04-25T09:46:49;99352.75;;;8.28;79.89
24858;BME280;12935;50.782;6.074;2023-04-25T09:49:20;99362.00;;;8.20;80.81
24858;BME280;12935;50.782;6.074;2023-04-25T09:51:58;99361.59;;;8.11;81.59
24858;BME280;12935;50.782;6.074;2023-04-25T09:54:24;99367.34;;;7.99;82.98
24858;BME280;12935;50.782;6.074;2023-04-25T09:56:52;99370.47;;;8.04;83.27
24858;BME280;12935;50.782;6.074;2023-04-25T09:59:21;99377.16;;;8.14;84.21
24858;BME280;12935;50.782;6.074;2023-04-25T10:01:48;99374.38;;;8.07;85.43
24858;BME280;12935;50.782;6.074;2023-04-25T10:04:19;99375.50;;;7.99;85.44
24858;BME280;12935;50.782;6.074;2023-04-25T10:06:45;99379.78;;;8.03;86.10
24858;BME280;12935;50.782;6.074;2023-04-25T10:09:14;99390.22;;;7.91;87.32
24858;BME280;12935;50.782;6.074;2023-04-25T10:11:40;99382.06;;;7.94;89.29
24858;BME280;12935;50.782;6.074;2023-04-25T10:14:06;99387.84;;;7.86;89.72
24858;BME280;12935;50.782;6.074;2023-04-25T10:16:31;99381.28;;;7.94;90.67
24858;BME280;12935;50.782;6.074;2023-04-25T10:18:57;99383.00;;;8.16;93.80
24858;BME280;12935;50.782;6.074;2023-04-25T10:21:23;99391.63;;;8.29;92.42
24858;BME280;12935;50.782;6.074;2023-04-25T10:23:49;99377.31;;;8.39;89.73
24858;BME280;12935;50.782;6.074;2023-04-25T10:26:15;99372.78;;;8.75;88.67
24858;BME280;12935;50.782;6.074;2023-04-25T10:28:59;99367.47;;;9.85;85.11
24858;BME280;12935;50.782;6.074;2023-04-25T10:31:25;99368.84;;;10.68;81.73
24858;BME280;12935;50.782;6.074;2023-04-25T10:33:50;99374.59;;;10.87;75.77
24858;BME280;12935;50.782;6.074;2023-04-25T10:36:20;99371.72;;;11.16;73.12
24858;BME280;12935;50.782;6.074;2023-04-25T10:38:47;99371.44;;;11.51;72.30
24858;BME280;12935;50.782;6.074;2023-04-25T10:41:14;99375.00;;;11.97;68.50
24858;BME280;12935;50.782;6.074;2023-04-25T10:43:43;99373.97;;;12.21;63.38
24858;BME280;12935;50.782;6.074;2023-04-25T10:46:22;99360.63;;;12.26;65.90
24858;BME280;12935;50.782;6.074;2023-04-25T10:48:50;99361.00;;;11.36;63.82
24858;BME280;12935;50.782;6.074;2023-04-25T10:51:22;99367.56;;;10.86;65.77
24858;BME280;12935;50.782;6.074;2023-04-25T10:53:59;99372.44;;;10.40;71.52
24858;BME280;12935;50.782;6.074;2023-04-25T10:56:45;99376.41;;;9.96;72.60
24858;BME280;12935;50.782;6.074;2023-04-25T10:59:15;99370.19;;;9.85;75.36
24858;BME280;12935;50.782;6.074;2023-04-25T11:01:46;99375.25;;;9.79;75.84
24858;BME280;12935;50.782;6.074;2023-04-25T11:04:29;99374.47;;;10.04;74.81
24858;BME280;12935;50.782;6.074;2023-04-25T11:09:36;99360.78;;;10.36;73.72
24858;BME280;12935;50.782;6.074;2023-04-25T11:12:03;99368.19;;;10.17;74.05
24858;BME280;12935;50.782;6.074;2023-04-25T11:14:28;99368.63;;;9.98;75.69
24858;BME280;12935;50.782;6.074;2023-04-25T11:16:55;99377.59;;;9.92;75.20
24858;BME280;12935;50.782;6.074;2023-04-25T11:19:24;99374.50;;;9.65;77.01
24858;BME280;12935;50.782;6.074;2023-04-25T11:21:50;99372.16;;;9.38;75.96
24858;BME280;12935;50.782;6.074;2023-04-25T11:24:18;99370.94;;;9.07;76.26
24858;BME280;12935;50.782;6.074;2023-04-25T11:26:46;99383.41;;;9.12;79.95
24858;BME280;12935;50.782;6.074;2023-04-25T11:29:12;99377.94;;;8.94;80.43
24858;BME280;12935;50.782;6.074;2023-04-25T11:31:37;99381.38;;;8.84;81.64
24858;BME280;12935;50.782;6.074;2023-04-25T11:34:03;99393.09;;;8.92;82.68
24858;BME280;12935;50.782;6.074;2023-04-25T11:36:28;99386.06;;;8.87;82.71
24858;BME280;12935;50.782;6.074;2023-04-25T11:38:53;99389.56;;;8.84;82.07
24858;BME280;12935;50.782;6.074;2023-04-25T11:41:20;99397.72;;;8.84;84.06
24858;BME280;12935;50.782;6.074;2023-04-25T11:43:47;99395.78;;;8.85;83.94
24858;BME280;12935;50.782;6.074;2023-04-25T11:46:13;99397.28;;;8.71;81.74
24858;BME280;12935;50.782;6.074;2023-04-25T11:48:42;99406.69;;;8.81;83.99
24858;BME280;12935;50.782;6.074;2023-04-25T11:51:08;99405.97;;;8.95;84.45
24858;BME280;12935;50.782;6.074;2023-04-25T11:53:34;99400.16;;;9.18;83.17
24858;BME280;12935;50.782;6.074;2023-04-25T11:55:59;99406.03;;;9.37;81.40
24858;BME280;12935;50.782;6.074;2023-04-25T11:58:26;99402.50;;;9.12;80.14
24858;BME280;12935;50.782;6.074;2023-04-25T12:00:51;99410.59;;;8.87;80.33
24858;BME280;12935;50.782;6.074;2023-04-25T12:03:17;99409.00;;;8.83;79.62
24858;BME280;12935;50.782;6.074;2023-04-25T12:05:44;99414.84;;;8.77;77.87
24858;BME280;12935;50.782;6.074;2023-04-25T12:08:14;99419.50;;;8.77;77.14
24858;BME280;12935;50.782;6.074;2023-04-25T12:10:41;99418.41;;;8.96;77.96
24858;BME280;12935;50.782;6.074;2023-04-25T12:13:24;99430.56;;;9.23;77.16
24858;BME280;12935;50.782;6.074;2023-04-25T12:15:50;99422.81;;;9.54;75.01
24858;BME280;12935;50.782;6.074;2023-04-25T12:18:19;99434.91;;;9.67;72.50
24858;BME280;12935;50.782;6.074;2023-04-25T12:20:44;99425.56;;;9.68;69.23
24858;BME280;12935;50.782;6.074;2023-04-25T12:23:10;99415.81;;;9.99;68.86
24858;BME280;12935;50.782;6.074;2023-04-25T12:25:43;99425.09;;;10.54;66.45
24858;BME280;12935;50.782;6.074;2023-04-25T12:28:21;99417.97;;;10.82;62.61
24858;BME280;12935;50.782;6.074;2023-04-25T12:33:24;99424.91;;;12.15;58.23
24858;BME280;12935;50.782;6.074;2023-04-25T12:35:49;99431.53;;;12.58;52.87
24858;BME280;12935;50.782;6.074;2023-04-25T12:38:41;99434.66;;;12.57;51.36
24858;BME280;12935;50.782;6.074;2023-04-25T12:41:07;99432.63;;;12.27;51.22
24858;BME280;12935;50.782;6.074;2023-04-25T12:43:33;99431.63;;;12.10;51.92
24858;BME280;12935;50.782;6.074;2023-04-25T12:45:58;99437.06;;;12.51;51.13
24858;BME280;12935;50.782;6.074;2023-04-25T12:48:24;99432.94;;;12.36;50.86
24858;BME280;12935;50.782;6.074;2023-04-25T12:50:50;99425.59;;;12.60;51.79
24858;BME280;12935;50.782;6.074;2023-04-25T12:53:20;99433.06;;;12.93;50.20
24858;BME280;12935;50.782;6.074;2023-04-25T12:55:46;99438.41;;;13.04;50.69
24858;BME280;12935;50.782;6.074;2023-04-25T12:58:12;99427.69;;;13.17;49.58
24858;BME280;12935;50.782;6.074;2023-04-25T13:00:38;99425.78;;;13.10;49.48
24858;BME280;12935;50.782;6.074;2023-04-25T13:03:03;99424.09;;;14.00;48.23
24858;BME280;12935;50.782;6.074;2023-04-25T13:05:29;99415.59;;;14.34;47.95
24858;BME280;12935;50.782;6.074;2023-04-25T13:07:55;99419.34;;;15.23;46.63
24858;BME280;12935;50.782;6.074;2023-04-25T13:10:20;99422.50;;;14.46;47.04
24858;BME280;12935;50.782;6.074;2023-04-25T13:12:46;99423.97;;;13.30;48.05